createdAt,value
2019-03-28T00:03:09.272Z,101430.39
2019-03-28T00:07:14.507Z,101432.02
2019-03-28T00:11:19.310Z,101426.47
2019-03-28T00:15:24.058Z,101428.80
2019-03-28T00:19:28.874Z,101432.38
2019-03-28T00:23:55.642Z,101423.80
2019-03-28T00:28:00.378Z,101423.06
2019-03-28T00:32:05.190Z,101425.39
2019-03-28T00:36:10.030Z,101416.69
2019-03-28T00:40:14.936Z,101417.99
2019-03-28T00:44:19.958Z,101420.30
2019-03-28T00:48:24.668Z,101422.20
2019-03-28T00:52:29.401Z,101416.53
2019-03-28T00:56:46.475Z,101417.48
2019-03-28T01:00:40.627Z,101418.41
2019-03-28T01:04:45.407Z,101422.94
2019-03-28T01:08:50.217Z,101418.12
2019-03-28T01:12:54.973Z,101421.70
2019-03-28T01:16:59.677Z,101419.28
2019-03-28T01:21:04.604Z,101421.71
2019-03-28T01:25:09.441Z,101423.65
2019-03-28T01:29:14.282Z,101410.61
2019-03-28T01:33:19.038Z,101411.98
2019-03-28T01:37:23.790Z,101422.11
2019-03-28T01:41:28.582Z,101422.11
2019-03-28T01:45:33.478Z,101416.02
2019-03-28T01:49:38.170Z,101418.77
2019-03-28T01:53:42.919Z,101419.20
2019-03-28T01:57:47.677Z,101413.11
2019-03-28T02:01:52.416Z,101408.78
2019-03-28T02:05:57.163Z,101400.98
2019-03-28T02:10:01.980Z,101410.75
2019-03-28T02:14:06.934Z,101402.46
2019-03-28T02:18:11.683Z,101400.27
2019-03-28T02:22:16.427Z,101405.08
2019-03-28T02:26:21.173Z,101401.22
2019-03-28T02:30:35.574Z,101405.64
2019-03-28T02:34:40.324Z,101403.97
2019-03-28T02:38:45.073Z,101408.03
2019-03-28T02:42:49.966Z,101403.61
2019-03-28T02:46:54.728Z,101408.09
2019-03-28T02:50:59.480Z,101408.49
2019-03-28T02:55:04.249Z,101407.18
2019-03-28T02:59:09.016Z,101410.75
2019-03-28T03:03:13.756Z,101413.05
2019-03-28T03:07:18.508Z,101412.69
2019-03-28T03:11:23.224Z,101407.57
2019-03-28T03:15:27.928Z,101405.90
2019-03-28T03:19:32.689Z,101411.59
2019-03-28T03:23:37.439Z,101410.78
2019-03-28T03:27:56.904Z,101417.34
2019-03-28T03:31:48.960Z,101413.41
2019-03-28T03:35:54.058Z,101414.29
2019-03-28T03:39:58.848Z,101420.84
2019-03-28T03:44:03.600Z,101417.83
2019-03-28T03:48:08.345Z,101408.65
2019-03-28T03:52:13.076Z,101410.78
2019-03-28T03:56:17.833Z,101406.48
2019-03-28T04:00:30.499Z,101406.55
2019-03-28T04:04:35.193Z,101393.01
2019-03-28T04:08:40.291Z,101383.50
2019-03-28T04:12:45.032Z,101406.67
2019-03-28T04:16:49.785Z,101407.56
2019-03-28T04:20:54.535Z,101399.33
2019-03-28T04:24:59.402Z,101399.49
2019-03-28T04:29:04.715Z,101404.38
2019-03-28T04:33:09.534Z,101401.39
2019-03-28T04:37:14.648Z,101396.99
2019-03-28T04:41:19.434Z,101400.44
2019-03-28T04:45:24.190Z,101400.38
2019-03-28T04:49:29.000Z,101406.54
2019-03-28T04:53:33.764Z,101394.73
2019-03-28T04:57:40.938Z,101400.44
2019-03-28T05:01:58.756Z,101407.48
2019-03-28T05:05:51.498Z,101416.37
2019-03-28T05:09:56.246Z,101412.86
2019-03-28T05:14:01.074Z,101410.23
2019-03-28T05:18:06.658Z,101410.23
2019-03-28T05:22:11.729Z,101411.88
2019-03-28T05:26:16.491Z,101412.80
2019-03-28T05:30:21.221Z,101422.34
2019-03-28T05:34:25.959Z,101423.36
2019-03-28T05:38:30.798Z,101429.42
2019-03-28T05:42:35.519Z,101433.48
2019-03-28T05:46:40.297Z,101435.25
2019-03-28T05:50:44.980Z,101439.19
2019-03-28T05:54:49.989Z,101428.37
2019-03-28T05:58:54.787Z,101444.14
2019-03-28T06:02:59.535Z,101453.87
2019-03-28T06:07:04.282Z,101448.27
2019-03-28T06:11:08.986Z,101454.40
2019-03-28T06:15:14.256Z,101453.64
2019-03-28T06:19:19.017Z,101462.33
2019-03-28T06:23:23.803Z,101465.25
2019-03-28T06:27:28.622Z,101455.55
2019-03-28T06:31:33.367Z,101464.44
2019-03-28T06:35:38.143Z,101458.77
2019-03-28T06:39:42.901Z,101460.33
2019-03-28T06:43:47.658Z,101457.80
2019-03-28T06:47:52.426Z,101455.79
2019-03-28T06:51:57.167Z,101456.38
2019-03-28T06:56:01.907Z,101464.01
2019-03-28T07:00:07.982Z,101461.14
2019-03-28T07:04:12.735Z,101455.66
2019-03-28T07:08:17.492Z,101459.53
2019-03-28T07:12:22.218Z,101463.47
2019-03-28T07:16:27.073Z,101462.80
2019-03-28T07:20:32.016Z,101458.98
2019-03-28T07:24:36.789Z,101457.88
2019-03-28T07:28:41.595Z,101447.61
2019-03-28T07:32:46.522Z,101448.73
2019-03-28T07:36:51.344Z,101441.42
2019-03-28T07:40:56.101Z,101441.23
2019-03-28T07:45:01.197Z,101439.41
2019-03-28T07:49:06.091Z,101444.52
2019-03-28T07:53:10.844Z,101440.89
2019-03-28T07:57:15.589Z,101440.69
2019-03-28T08:01:20.314Z,101439.19
2019-03-28T08:05:25.086Z,101437.66
2019-03-28T08:09:36.577Z,101440.14
2019-03-28T08:13:36.624Z,101439.60
2019-03-28T08:17:41.397Z,101439.01
2019-03-28T08:21:46.462Z,101435.67
2019-03-28T08:25:51.339Z,101437.34
2019-03-28T08:29:57.832Z,101444.58
2019-03-28T08:34:02.990Z,101445.30
2019-03-28T08:38:10.134Z,101440.69
2019-03-28T08:42:15.225Z,101440.96
2019-03-28T08:46:19.937Z,101442.09
2019-03-28T08:50:25.107Z,101450.80
2019-03-28T08:54:29.861Z,101444.96
2019-03-28T08:58:37.974Z,101433.27
2019-03-28T09:02:41.113Z,101448.69
2019-03-28T09:06:46.179Z,101445.31
2019-03-28T09:10:51.359Z,101441.52
2019-03-28T09:23:41.985Z,101430.05
2019-03-28T09:27:46.761Z,101420.55
2019-03-28T09:31:52.518Z,101413.68
2019-03-28T09:35:57.256Z,101413.68
2019-03-28T09:40:02.021Z,101396.08
2019-03-28T09:44:06.790Z,101410.48
2019-03-28T09:48:12.153Z,101405.41
2019-03-28T09:52:16.971Z,101387.41
2019-03-28T09:56:21.687Z,101393.48
2019-03-28T10:00:26.581Z,101398.96
2019-03-28T10:04:31.283Z,101383.23
2019-03-28T10:08:36.517Z,101388.58
2019-03-28T10:12:44.053Z,101374.61
2019-03-28T10:16:48.181Z,101378.28
2019-03-28T10:20:52.917Z,101379.27
2019-03-28T10:24:57.773Z,101379.27
2019-03-28T10:29:02.533Z,101381.03
2019-03-28T10:33:07.688Z,101380.66
2019-03-28T10:37:12.543Z,101369.80
2019-03-28T10:41:17.403Z,101373.91
2019-03-28T10:45:22.141Z,101364.82
2019-03-28T10:49:26.867Z,101360.55
2019-03-28T10:53:31.604Z,101361.12
2019-03-28T10:57:36.352Z,101355.49
2019-03-28T11:01:49.141Z,101359.55
2019-03-28T11:05:47.701Z,101358.86
2019-03-28T11:09:52.542Z,101353.30
2019-03-28T11:13:57.307Z,101355.52
2019-03-28T11:18:02.071Z,101356.47
2019-03-28T11:22:06.808Z,101361.25
2019-03-28T11:26:11.540Z,101358.55
2019-03-28T11:30:18.395Z,101359.49
2019-03-28T11:34:23.129Z,101356.84
2019-03-28T11:38:28.787Z,101358.64
2019-03-28T11:42:33.608Z,101352.88
2019-03-28T11:46:38.351Z,101348.53
2019-03-28T11:50:43.112Z,101341.89
2019-03-28T11:54:47.922Z,101344.56
2019-03-28T11:58:52.720Z,101350.30
2019-03-28T12:02:57.492Z,101338.92
2019-03-28T12:07:02.266Z,101335.10
2019-03-28T12:11:07.288Z,101333.84
2019-03-28T12:15:12.757Z,101326.52
2019-03-28T12:19:17.864Z,101323.50
2019-03-28T12:23:22.790Z,101324.83
2019-03-28T12:27:27.659Z,101320.33
2019-03-28T12:31:33.375Z,101311.98
2019-03-28T12:35:38.092Z,101304.93
2019-03-28T12:39:43.093Z,101303.68
2019-03-28T12:43:47.829Z,101283.40
2019-03-28T12:47:52.566Z,101283.47
2019-03-28T12:51:57.342Z,101281.66
2019-03-28T12:56:02.085Z,101278.08
2019-03-28T13:00:07.911Z,101276.26
2019-03-28T13:04:12.697Z,101276.65
2019-03-28T13:08:17.758Z,101269.16
2019-03-28T13:12:22.812Z,101272.70
2019-03-28T13:16:27.707Z,101275.41
2019-03-28T13:20:32.491Z,101270.19
2019-03-28T13:24:37.320Z,101271.20
2019-03-28T13:28:42.056Z,101266.95
2019-03-28T13:32:46.798Z,101261.78
2019-03-28T13:36:51.527Z,101263.58
2019-03-28T13:40:56.280Z,101264.47
2019-03-28T13:45:02.219Z,101257.34
2019-03-28T13:49:07.063Z,101250.66
2019-03-28T13:53:11.899Z,101252.91
2019-03-28T13:57:16.731Z,101256.06
2019-03-28T14:01:22.564Z,101247.69
2019-03-28T14:05:27.499Z,101258.70
2019-03-28T14:09:32.261Z,101258.29
2019-03-28T14:13:37.319Z,101255.16
2019-03-28T14:17:42.254Z,101250.21
2019-03-28T14:21:46.959Z,101248.48
2019-03-28T14:25:51.718Z,101248.43
2019-03-28T14:29:56.455Z,101243.91
2019-03-28T14:34:01.284Z,101247.26
2019-03-28T14:38:05.996Z,101249.80
2019-03-28T14:42:10.796Z,101255.45
2019-03-28T14:46:15.597Z,101252.30
2019-03-28T14:50:41.860Z,101251.72
2019-03-28T14:54:46.583Z,101257.30
2019-03-28T14:58:53.715Z,101268.08
2019-03-28T15:02:58.471Z,101255.25
2019-03-28T15:07:03.182Z,101263.09
2019-03-28T15:11:07.926Z,101259.80
2019-03-28T15:15:12.702Z,101267.17
2019-03-28T15:19:17.451Z,101275.44
2019-03-28T15:23:22.207Z,101272.67
2019-03-28T15:27:27.321Z,101278.23
2019-03-28T15:31:32.125Z,101276.00
2019-03-28T15:35:36.880Z,101277.30
2019-03-28T15:39:41.643Z,101280.41
2019-03-28T15:43:46.432Z,101283.18
2019-03-28T15:47:52.182Z,101298.63
2019-03-28T15:51:57.153Z,101293.31
2019-03-28T15:56:02.268Z,101285.66
2019-03-28T16:00:07.400Z,101295.72
2019-03-28T16:04:12.148Z,101289.96
2019-03-28T16:08:16.865Z,101295.17
2019-03-28T16:12:21.623Z,101285.09
2019-03-28T16:16:26.468Z,101281.53
2019-03-28T16:20:31.217Z,101285.53
2019-03-28T16:24:36.025Z,101284.74
2019-03-28T16:28:41.701Z,101297.55
2019-03-28T16:32:47.643Z,101294.97
2019-03-28T16:36:52.405Z,101298.05
2019-03-28T16:40:57.788Z,101297.17
2019-03-28T16:45:02.557Z,101299.72
2019-03-28T16:49:08.190Z,101304.45
2019-03-28T16:53:14.692Z,101301.72
2019-03-28T16:57:19.777Z,101304.36
2019-03-28T17:01:25.040Z,101307.44
2019-03-28T17:05:29.777Z,101314.08
2019-03-28T17:09:37.544Z,101309.70
2019-03-28T17:13:41.833Z,101310.01
2019-03-28T17:17:46.595Z,101305.54
2019-03-28T17:21:51.316Z,101312.08
2019-03-28T17:25:56.069Z,101319.85
2019-03-28T17:30:01.031Z,101319.85
2019-03-28T17:34:05.780Z,101314.98
2019-03-28T17:38:10.582Z,101318.46
2019-03-28T17:42:16.288Z,101322.86
2019-03-28T17:46:21.348Z,101317.58
2019-03-28T17:50:26.317Z,101329.50
2019-03-28T17:54:31.068Z,101335.59
2019-03-28T17:58:35.897Z,101340.75
2019-03-28T18:02:40.784Z,101352.00
2019-03-28T18:06:45.648Z,101365.05
2019-03-28T18:10:50.583Z,101371.13
2019-03-28T18:14:55.319Z,101377.17
2019-03-28T18:19:00.166Z,101383.25
2019-03-28T18:23:04.926Z,101402.53
2019-03-28T18:27:09.688Z,101409.95
2019-03-28T18:31:14.497Z,101422.90
2019-03-28T18:35:19.371Z,101422.90
2019-03-28T18:39:24.276Z,101428.53
2019-03-28T18:43:29.156Z,101427.92
2019-03-28T18:47:33.953Z,101429.95
2019-03-28T18:51:38.711Z,101425.51
2019-03-28T18:55:43.683Z,101431.44
2019-03-28T18:59:49.682Z,101431.44
2019-03-28T19:03:54.660Z,101435.84
2019-03-28T19:07:59.418Z,101431.44
2019-03-28T19:12:04.173Z,101439.27
2019-03-28T19:16:09.131Z,101433.77
2019-03-28T19:20:14.195Z,101429.33
2019-03-28T19:24:19.035Z,101429.33
2019-03-28T19:28:29.007Z,101431.03
2019-03-28T19:32:30.394Z,101426.47
2019-03-28T19:36:35.728Z,101446.54
2019-03-28T19:40:40.466Z,101446.54
2019-03-28T19:44:45.418Z,101450.84
2019-03-28T19:48:50.258Z,101448.09
2019-03-28T19:52:55.049Z,101456.75
2019-03-28T19:56:59.804Z,101461.53
2019-03-28T20:01:05.157Z,101468.95
2019-03-28T20:05:10.158Z,101469.82
2019-03-28T20:09:16.459Z,101468.02
2019-03-28T20:13:21.419Z,101476.81
2019-03-28T20:17:26.164Z,101486.08
2019-03-28T20:21:31.051Z,101486.08
2019-03-28T20:25:35.827Z,101488.27
2019-03-28T20:29:40.621Z,101493.92
2019-03-28T20:33:45.470Z,101488.22
2019-03-28T20:37:50.209Z,101492.61
2019-03-28T20:41:54.984Z,101490.42
2019-03-28T20:45:59.729Z,101493.98
2019-03-28T20:50:04.908Z,101499.27
2019-03-28T20:54:09.650Z,101496.56
2019-03-28T20:58:14.461Z,101493.06
2019-03-28T21:02:19.273Z,101499.65
2019-03-28T21:06:24.034Z,101506.77
2019-03-28T21:10:33.006Z,101516.39
2019-03-28T21:14:35.393Z,101515.03
2019-03-28T21:18:40.109Z,101508.33
2019-03-28T21:22:44.911Z,101518.81
2019-03-28T21:26:49.617Z,101523.56
2019-03-28T21:30:54.408Z,101520.86
2019-03-28T21:34:59.179Z,101523.02
2019-03-28T21:39:05.395Z,101522.81
2019-03-28T21:43:10.107Z,101510.41
2019-03-28T21:47:14.863Z,101506.69
2019-03-28T21:51:20.217Z,101503.17
2019-03-28T21:55:25.376Z,101497.80
2019-03-28T21:59:30.155Z,101517.17
2019-03-28T22:03:34.937Z,101525.52
2019-03-28T22:07:40.407Z,101522.05
2019-03-28T22:11:45.806Z,101526.98
2019-03-28T22:15:50.517Z,101530.94
2019-03-28T22:19:55.279Z,101528.75
2019-03-28T22:24:00.234Z,101534.45
2019-03-28T22:28:05.050Z,101532.63
2019-03-28T22:32:11.752Z,101537.37
2019-03-28T22:36:17.919Z,101532.86
2019-03-28T22:40:22.930Z,101536.66
2019-03-28T22:44:27.683Z,101541.16
2019-03-28T22:48:32.708Z,101538.18
2019-03-28T22:52:37.458Z,101531.77
2019-03-28T22:56:42.213Z,101527.27
2019-03-28T23:00:50.558Z,101527.27
2019-03-28T23:04:55.327Z,101530.25
2019-03-28T23:09:00.087Z,101528.86
2019-03-28T23:13:04.814Z,101528.37
2019-03-28T23:17:09.665Z,101531.52
2019-03-28T23:21:15.844Z,101531.57
2019-03-28T23:25:20.804Z,101536.77
2019-03-28T23:29:25.601Z,101538.36
2019-03-28T23:33:30.917Z,101534.68
2019-03-28T23:37:35.941Z,101539.41
2019-03-28T23:41:40.647Z,101538.86
2019-03-28T23:45:45.818Z,101545.33
2019-03-28T23:49:50.557Z,101542.19
2019-03-28T23:53:55.454Z,101539.55
2019-03-28T23:58:00.303Z,101538.69
